Time,TemperatureF,DewpointF,PressureIn,WindDirection,WindDirectionDegrees,WindSpeedMPH,WindSpeedGustMPH,Humidity,HourlyPrecipIn,Conditions,Clouds,dailyrainin,SoftwareType,DateUTC
2013-03-26 00:05:00,34.9,28.4,29.98,NNE,23,7.0,7.0,77,0.00,,,0.00,Wunderground v.1.15,2013-03-26 05:05:00,
2013-03-26 00:10:00,34.9,28.7,29.98,NNE,20,7.0,7.0,78,0.00,,,0.00,Wunderground v.1.15,2013-03-26 05:10:00,
2013-03-26 00:14:00,34.9,29.0,29.98,NE,35,6.0,7.0,79,0.00,,,0.00,Wunderground v.1.15,2013-03-26 05:14:00,
2013-03-26 00:19:00,34.9,28.1,29.98,NNE,30,6.0,10.0,76,0.00,,,0.00,Wunderground v.1.15,2013-03-26 05:19:00,
2013-03-26 00:24:00,34.7,29.2,29.98,NE,46,7.0,10.0,80,0.00,,,0.00,Wunderground v.1.15,2013-03-26 05:24:00,
2013-03-26 00:29:00,34.7,29.2,29.98,NE,47,7.0,10.0,80,0.00,,,0.00,Wunderground v.1.15,2013-03-26 05:29:00,
2013-03-26 00:34:00,34.7,29.5,29.98,NNE,19,7.0,10.0,81,0.00,,,0.00,Wunderground v.1.15,2013-03-26 05:34:00,
2013-03-26 00:39:00,34.7,29.5,29.98,NE,38,6.0,6.0,81,0.00,,,0.00,Wunderground v.1.15,2013-03-26 05:39:00,
2013-03-26 00:44:00,34.6,29.4,29.98,NNE,30,5.0,6.0,81,0.00,,,0.00,Wunderground v.1.15,2013-03-26 05:44:00,
2013-03-26 00:49:00,34.6,29.4,29.98,NE,40,5.0,6.0,81,0.00,,,0.00,Wunderground v.1.15,2013-03-26 05:49:00,
2013-03-26 00:54:00,34.6,29.4,29.98,NE,36,5.0,6.0,81,0.00,,,0.00,Wunderground v.1.15,2013-03-26 05:54:00,
2013-03-26 00:59:00,34.4,29.2,29.99,NE,35,5.0,5.0,81,0.00,,,0.00,Wunderground v.1.15,2013-03-26 05:59:00,
2013-03-26 01:04:00,34.4,29.2,29.99,NE,36,5.0,5.0,81,0.00,,,0.00,Wunderground v.1.15,2013-03-26 06:04:00,
2013-03-26 01:10:00,34.4,29.2,29.99,NE,38,5.0,6.0,81,0.00,,,0.00,Wunderground v.1.15,2013-03-26 06:10:00,
2013-03-26 01:15:00,34.4,29.2,29.99,NE,35,4.0,6.0,81,0.00,,,0.00,Wunderground v.1.15,2013-03-26 06:15:00,
2013-03-26 01:20:00,34.4,29.5,29.99,NE,38,5.0,7.0,82,0.00,,,0.00,Wunderground v.1.15,2013-03-26 06:20:00,
2013-03-26 01:25:00,34.4,29.5,29.99,NNE,17,6.0,7.0,82,0.00,,,0.00,Wunderground v.1.15,2013-03-26 06:25:00,
2013-03-26 01:29:00,34.3,29.4,29.99,NE,36,6.0,6.0,82,0.00,,,0.00,Wunderground v.1.15,2013-03-26 06:29:00,
2013-03-26 01:34:00,34.3,29.4,29.99,NNE,24,6.0,9.0,82,0.00,,,0.00,Wunderground v.1.15,2013-03-26 06:34:00,
2013-03-26 01:39:00,34.3,29.7,29.99,NE,42,7.0,7.0,83,0.00,,,0.00,Wunderground v.1.15,2013-03-26 06:39:00,
2013-03-26 01:44:00,34.3,29.7,30.00,NE,39,6.0,7.0,83,0.00,,,0.00,Wunderground v.1.15,2013-03-26 06:44:00,
2013-03-26 01:49:00,34.1,29.5,30.00,NE,35,5.0,5.0,83,0.00,,,0.00,Wunderground v.1.15,2013-03-26 06:49:00,
2013-03-26 01:54:00,34.1,29.8,30.00,NE,43,5.0,5.0,84,0.00,,,0.00,Wunderground v.1.15,2013-03-26 06:54:00,
2013-03-26 01:59:00,34.0,29.7,30.00,NE,52,5.0,5.0,84,0.00,,,0.00,Wunderground v.1.15,2013-03-26 06:59:00,
2013-03-26 02:04:00,34.0,29.7,30.00,NNE,28,5.0,7.0,84,0.00,,,0.00,Wunderground v.1.15,2013-03-26 07:04:00,
2013-03-26 02:09:00,34.0,29.1,30.00,NNE,17,5.0,5.0,82,0.00,,,0.00,Wunderground v.1.15,2013-03-26 07:09:00,
2013-03-26 02:14:00,33.8,29.5,29.99,NE,36,4.0,5.0,84,0.00,,,0.00,Wunderground v.1.15,2013-03-26 07:14:00,
2013-03-26 02:19:00,33.8,29.5,29.99,ENE,61,3.0,3.0,84,0.00,,,0.00,Wunderground v.1.15,2013-03-26 07:19:00,
2013-03-26 02:24:00,33.8,29.5,29.99,NE,56,3.0,3.0,84,0.00,,,0.00,Wunderground v.1.15,2013-03-26 07:24:00,
2013-03-26 02:30:00,34.0,29.7,29.99,NE,49,3.0,3.0,84,0.00,,,0.00,Wunderground v.1.15,2013-03-26 07:30:00,
2013-03-26 02:35:00,34.0,30.0,29.99,NNE,33,3.0,3.0,85,0.00,,,0.00,Wunderground v.1.15,2013-03-26 07:35:00,
2013-03-26 02:40:00,34.0,30.0,29.99,NNE,16,4.0,4.0,85,0.00,,,0.00,Wunderground v.1.15,2013-03-26 07:40:00,
2013-03-26 02:45:00,34.1,30.1,29.99,NE,49,5.0,5.0,85,0.00,,,0.00,Wunderground v.1.15,2013-03-26 07:45:00,
2013-03-26 02:50:00,34.1,30.1,29.99,NNE,21,5.0,5.0,85,0.00,,,0.00,Wunderground v.1.15,2013-03-26 07:50:00,
2013-03-26 02:59:00,34.1,29.8,29.99,NNE,18,6.0,6.0,84,0.00,,,0.00,Wunderground v.1.15,2013-03-26 07:59:00,
2013-03-26 03:04:00,34.1,29.8,29.99,NNE,32,6.0,6.0,84,0.00,,,0.00,Wunderground v.1.15,2013-03-26 08:04:00,
2013-03-26 03:09:00,34.1,29.8,29.99,North,5,6.0,9.0,84,0.00,,,0.00,Wunderground v.1.15,2013-03-26 08:09:00,
2013-03-26 03:14:00,34.1,29.8,30.00,NNE,23,6.0,10.0,84,0.00,,,0.00,Wunderground v.1.15,2013-03-26 08:14:00,
2013-03-26 03:19:00,34.1,29.8,30.00,NNE,26,6.0,6.0,84,0.00,,,0.00,Wunderground v.1.15,2013-03-26 08:19:00,
2013-03-26 03:24:00,34.0,29.7,30.00,NNE,28,6.0,6.0,84,0.00,,,0.00,Wunderground v.1.15,2013-03-26 08:24:00,
2013-03-26 03:30:00,34.0,29.7,30.00,NNE,13,7.0,7.0,84,0.00,,,0.00,Wunderground v.1.15,2013-03-26 08:30:00,
2013-03-26 03:35:00,34.1,29.8,30.00,NNE,20,7.0,7.0,84,0.00,,,0.00,Wunderground v.1.15,2013-03-26 08:35:00,
2013-03-26 03:40:00,34.1,29.8,30.00,NNE,13,6.0,9.0,84,0.00,,,0.00,Wunderground v.1.15,2013-03-26 08:40:00,
2013-03-26 03:45:00,34.1,29.8,30.00,NNE,19,7.0,9.0,84,0.00,,,0.00,Wunderground v.1.15,2013-03-26 08:45:00,
2013-03-26 03:49:00,34.1,29.8,30.00,North,360,8.0,8.0,84,0.00,,,0.00,Wunderground v.1.15,2013-03-26 08:49:00,
2013-03-26 03:54:00,34.1,29.8,30.00,North,9,8.0,8.0,84,0.00,,,0.00,Wunderground v.1.15,2013-03-26 08:54:00,
2013-03-26 03:59:00,34.1,29.8,30.00,NE,38,9.0,9.0,84,0.00,,,0.00,Wunderground v.1.15,2013-03-26 08:59:00,
2013-03-26 04:04:00,34.1,29.5,30.00,NNE,21,8.0,9.0,83,0.00,,,0.00,Wunderground v.1.15,2013-03-26 09:04:00,
2013-03-26 04:09:00,34.3,29.7,30.00,NNE,21,8.0,8.0,83,0.00,,,0.00,Wunderground v.1.15,2013-03-26 09:09:00,
2013-03-26 04:14:00,34.1,29.5,30.00,North,10,7.0,8.0,83,0.00,,,0.00,Wunderground v.1.15,2013-03-26 09:14:00,
2013-03-26 04:19:00,34.1,29.5,30.00,NNE,23,7.0,7.0,83,0.00,,,0.00,Wunderground v.1.15,2013-03-26 09:19:00,
2013-03-26 04:24:00,34.1,29.5,30.00,NE,48,6.0,7.0,83,0.00,,,0.00,Wunderground v.1.15,2013-03-26 09:24:00,
2013-03-26 04:29:00,34.1,29.5,30.01,NNE,18,6.0,6.0,83,0.00,,,0.00,Wunderground v.1.15,2013-03-26 09:29:00,
2013-03-26 04:34:00,34.3,29.7,30.01,NNE,27,6.0,9.0,83,0.00,,,0.00,Wunderground v.1.15,2013-03-26 09:34:00,
2013-03-26 04:39:00,34.3,29.7,30.01,NNE,14,7.0,7.0,83,0.00,,,0.00,Wunderground v.1.15,2013-03-26 09:39:00,
2013-03-26 04:45:00,34.3,29.7,30.01,ENE,61,7.0,9.0,83,0.00,,,0.00,Wunderground v.1.15,2013-03-26 09:45:00,
2013-03-26 04:50:00,34.1,29.5,30.01,NE,40,7.0,7.0,83,0.00,,,0.00,Wunderground v.1.15,2013-03-26 09:50:00,
2013-03-26 04:55:00,34.1,29.5,30.01,NNE,21,7.0,7.0,83,0.00,,,0.00,Wunderground v.1.15,2013-03-26 09:55:00,
2013-03-26 05:00:00,34.1,29.5,30.01,North,5,7.0,12.0,83,0.00,,,0.00,Wunderground v.1.15,2013-03-26 10:00:00,
2013-03-26 05:09:00,34.1,29.2,30.01,NNE,18,7.0,13.0,82,0.00,,,0.00,Wunderground v.1.15,2013-03-26 10:09:00,
2013-03-26 05:14:00,34.3,29.4,30.01,NNE,17,7.0,13.0,82,0.00,,,0.00,Wunderground v.1.15,2013-03-26 10:14:00,
2013-03-26 05:24:00,34.3,29.4,30.01,NNE,26,8.0,8.0,82,0.00,,,0.00,Wunderground v.1.15,2013-03-26 10:24:00,
2013-03-26 05:29:00,34.3,29.4,30.02,NNE,19,8.0,8.0,82,0.00,,,0.00,Wunderground v.1.15,2013-03-26 10:29:00,
2013-03-26 05:34:00,34.3,29.4,30.02,NNE,27,7.0,8.0,82,0.00,,,0.00,Wunderground v.1.15,2013-03-26 10:34:00,
2013-03-26 05:39:00,34.3,29.4,30.02,NNE,15,7.0,7.0,82,0.00,,,0.00,Wunderground v.1.15,2013-03-26 10:39:00,
2013-03-26 05:44:00,34.3,29.7,30.03,North,360,8.0,8.0,83,0.00,,,0.00,Wunderground v.1.15,2013-03-26 10:44:00,
2013-03-26 05:49:00,34.3,29.7,30.03,North,5,9.0,9.0,83,0.00,,,0.00,Wunderground v.1.15,2013-03-26 10:49:00,
2013-03-26 05:54:00,34.3,30.0,30.03,North,360,9.0,9.0,84,0.00,,,0.00,Wunderground v.1.15,2013-03-26 10:54:00,
2013-03-26 05:59:00,34.3,30.0,30.03,North,5,8.0,9.0,84,0.00,,,0.00,Wunderground v.1.15,2013-03-26 10:59:00,
2013-03-26 06:04:00,34.3,30.0,30.03,NNE,14,8.0,11.0,84,0.00,,,0.00,Wunderground v.1.15,2013-03-26 11:04:00,
2013-03-26 06:09:00,34.1,29.8,30.03,NNE,21,9.0,9.0,84,0.00,,,0.00,Wunderground v.1.15,2013-03-26 11:09:00,
2013-03-26 06:14:00,34.1,29.8,30.03,NNE,19,10.0,10.0,84,0.00,,,0.00,Wunderground v.1.15,2013-03-26 11:14:00,
2013-03-26 06:19:00,34.1,29.8,30.03,NE,42,9.0,9.0,84,0.00,,,0.00,Wunderground v.1.15,2013-03-26 11:19:00,
2013-03-26 06:24:00,34.1,29.8,30.03,NNE,20,7.0,9.0,84,0.00,,,0.00,Wunderground v.1.15,2013-03-26 11:24:00,
2013-03-26 06:29:00,34.1,29.8,30.04,NNE,18,8.0,8.0,84,0.00,,,0.00,Wunderground v.1.15,2013-03-26 11:29:00,
2013-03-26 06:34:00,34.0,30.3,30.04,NNE,14,10.0,14.0,86,0.00,,,0.00,Wunderground v.1.15,2013-03-26 11:34:00,
2013-03-26 06:39:00,33.8,30.3,30.04,NE,37,11.0,11.0,87,0.00,,,0.00,Wunderground v.1.15,2013-03-26 11:39:00,
2013-03-26 06:44:00,33.7,30.2,30.04,NNE,12,12.0,12.0,87,0.00,,,0.00,Wunderground v.1.15,2013-03-26 11:44:00,
2013-03-26 06:49:00,33.5,30.0,30.04,NNE,13,12.0,16.0,87,0.00,,,0.00,Wunderground v.1.15,2013-03-26 11:49:00,
2013-03-26 06:54:00,33.2,29.8,30.04,NNE,19,12.0,16.0,87,0.00,,,0.00,Wunderground v.1.15,2013-03-26 11:54:00,
2013-03-26 06:59:00,33.1,29.7,30.06,NNE,24,10.0,10.0,87,0.00,,,0.00,Wunderground v.1.15,2013-03-26 11:59:00,
2013-03-26 07:05:00,32.9,29.5,30.06,NNE,18,8.0,10.0,87,0.00,,,0.00,Wunderground v.1.15,2013-03-26 12:05:00,
2013-03-26 07:10:00,32.7,29.5,30.06,North,5,9.0,11.0,88,0.00,,,0.00,Wunderground v.1.15,2013-03-26 12:10:00,
2013-03-26 07:19:00,32.2,29.0,30.06,NE,45,7.0,7.0,88,0.00,,,0.00,Wunderground v.1.15,2013-03-26 12:19:00,
2013-03-26 07:24:00,32.1,29.2,30.06,NE,36,5.0,9.0,89,0.00,,,0.00,Wunderground v.1.15,2013-03-26 12:24:00,
2013-03-26 07:29:00,31.9,29.0,30.07,NNE,20,5.0,11.0,89,0.00,,,0.00,Wunderground v.1.15,2013-03-26 12:29:00,
2013-03-26 07:34:00,32.2,29.3,30.07,NE,36,8.0,11.0,89,0.00,,,0.00,Wunderground v.1.15,2013-03-26 12:34:00,
2013-03-26 07:39:00,32.5,29.6,30.07,ENE,61,8.0,8.0,89,0.00,,,0.00,Wunderground v.1.15,2013-03-26 12:39:00,
2013-03-26 07:44:00,32.7,29.8,30.07,NNE,15,6.0,8.0,89,0.00,,,0.00,Wunderground v.1.15,2013-03-26 12:44:00,
2013-03-26 07:49:00,32.8,30.2,30.07,NNE,29,5.0,5.0,90,0.00,,,0.00,Wunderground v.1.15,2013-03-26 12:49:00,
2013-03-26 07:54:00,33.1,30.2,30.07,NNE,24,6.0,7.0,89,0.00,,,0.00,Wunderground v.1.15,2013-03-26 12:54:00,
2013-03-26 07:59:00,33.4,30.5,30.08,NNE,31,7.0,9.0,89,0.00,,,0.00,Wunderground v.1.15,2013-03-26 12:59:00,
2013-03-26 08:04:00,33.7,30.2,30.08,NE,47,8.0,11.0,87,0.00,,,0.00,Wunderground v.1.15,2013-03-26 13:04:00,
2013-03-26 08:09:00,33.8,29.8,30.08,NNE,28,9.0,11.0,85,0.00,,,0.00,Wunderground v.1.15,2013-03-26 13:09:00,
2013-03-26 08:15:00,34.0,29.7,30.08,North,5,9.0,14.0,84,0.00,,,0.00,Wunderground v.1.15,2013-03-26 13:15:00,
2013-03-26 08:20:00,34.1,29.2,30.08,NNE,19,9.0,9.0,82,0.00,,,0.00,Wunderground v.1.15,2013-03-26 13:20:00,
2013-03-26 08:24:00,34.3,29.1,30.08,NNE,28,10.0,10.0,81,0.00,,,0.00,Wunderground v.1.15,2013-03-26 13:24:00,
2013-03-26 08:29:00,34.6,29.4,30.09,NNE,22,9.0,9.0,81,0.00,,,0.00,Wunderground v.1.15,2013-03-26 13:29:00,
2013-03-26 08:34:00,34.6,29.1,30.09,NNE,13,8.0,9.0,80,0.00,,,0.00,Wunderground v.1.15,2013-03-26 13:34:00,
2013-03-26 08:39:00,34.6,28.8,30.09,NE,34,9.0,9.0,79,0.00,,,0.00,Wunderground v.1.15,2013-03-26 13:39:00,
2013-03-26 08:44:00,34.6,28.8,30.09,North,11,9.0,9.0,79,0.00,,,0.00,Wunderground v.1.15,2013-03-26 13:44:00,
2013-03-26 08:49:00,34.6,28.4,30.09,NE,47,10.0,10.0,78,0.00,,,0.00,Wunderground v.1.15,2013-03-26 13:49:00,
2013-03-26 08:54:00,34.6,28.4,30.09,NNE,13,11.0,11.0,78,0.00,,,0.00,Wunderground v.1.15,2013-03-26 13:54:00,
2013-03-26 08:59:00,34.6,28.4,30.09,NNE,18,10.0,10.0,78,0.00,,,0.00,Wunderground v.1.15,2013-03-26 13:59:00,
2013-03-26 09:04:00,34.6,28.4,30.09,NNE,13,10.0,11.0,78,0.00,,,0.00,Wunderground v.1.15,2013-03-26 14:04:00,
2013-03-26 09:09:00,34.7,28.5,30.09,North,5,9.0,10.0,78,0.00,,,0.00,Wunderground v.1.15,2013-03-26 14:09:00,
2013-03-26 09:14:00,34.7,28.2,30.10,NNE,13,9.0,10.0,77,0.00,,,0.00,Wunderground v.1.15,2013-03-26 14:14:00,
2013-03-26 09:19:00,34.9,28.4,30.10,North,5,8.0,9.0,77,0.00,,,0.00,Wunderground v.1.15,2013-03-26 14:19:00,
2013-03-26 09:24:00,34.7,28.2,30.10,NNE,16,8.0,11.0,77,0.00,,,0.00,Wunderground v.1.15,2013-03-26 14:24:00,
2013-03-26 09:29:00,34.9,28.1,30.10,North,355,9.0,9.0,76,0.00,,,0.00,Wunderground v.1.15,2013-03-26 14:29:00,
2013-03-26 09:35:00,35.3,28.5,30.10,NE,36,7.0,9.0,76,0.00,,,0.00,Wunderground v.1.15,2013-03-26 14:35:00,
2013-03-26 09:40:00,35.3,28.2,30.10,NE,38,5.0,7.0,75,0.00,,,0.00,Wunderground v.1.15,2013-03-26 14:40:00,
2013-03-26 09:45:00,35.5,28.0,30.10,NNE,31,6.0,8.0,74,0.00,,,0.00,Wunderground v.1.15,2013-03-26 14:45:00,
2013-03-26 09:50:00,35.3,27.5,30.10,NE,52,8.0,8.0,73,0.00,,,0.00,Wunderground v.1.15,2013-03-26 14:50:00,
2013-03-26 09:54:00,35.3,27.8,30.10,North,355,10.0,10.0,74,0.00,,,0.00,Wunderground v.1.15,2013-03-26 14:54:00,
2013-03-26 09:59:00,35.3,27.8,30.11,North,11,11.0,15.0,74,0.00,,,0.00,Wunderground v.1.15,2013-03-26 14:59:00,
2013-03-26 10:04:00,35.8,28.6,30.11,North,9,11.0,15.0,75,0.00,,,0.00,Wunderground v.1.15,2013-03-26 15:04:00,
2013-03-26 10:09:00,35.9,27.7,30.11,North,9,11.0,17.0,72,0.00,,,0.00,Wunderground v.1.15,2013-03-26 15:09:00,
2013-03-26 10:14:00,35.6,27.8,30.11,North,355,12.0,17.0,73,0.00,,,0.00,Wunderground v.1.15,2013-03-26 15:14:00,
2013-03-26 10:19:00,35.3,27.5,30.11,North,5,11.0,14.0,73,0.00,,,0.00,Wunderground v.1.15,2013-03-26 15:19:00,
2013-03-26 10:24:00,35.3,27.8,30.11,NE,36,10.0,14.0,74,0.00,,,0.00,Wunderground v.1.15,2013-03-26 15:24:00,
2013-03-26 10:29:00,35.6,28.1,30.11,North,5,10.0,13.0,74,0.00,,,0.00,Wunderground v.1.15,2013-03-26 15:29:00,
2013-03-26 10:34:00,35.5,27.0,30.11,NNE,24,10.0,14.0,71,0.00,,,0.00,Wunderground v.1.15,2013-03-26 15:34:00,
2013-03-26 10:39:00,35.5,27.4,30.11,North,360,12.0,12.0,72,0.00,,,0.00,Wunderground v.1.15,2013-03-26 15:39:00,
2013-03-26 10:44:00,35.9,27.7,30.11,NNE,13,12.0,13.0,72,0.00,,,0.00,Wunderground v.1.15,2013-03-26 15:44:00,
2013-03-26 10:50:00,35.6,27.8,30.11,North,360,12.0,12.0,73,0.00,,,0.00,Wunderground v.1.15,2013-03-26 15:50:00,
2013-03-26 10:55:00,35.5,27.0,30.11,North,351,13.0,13.0,71,0.00,,,0.00,Wunderground v.1.15,2013-03-26 15:55:00,
2013-03-26 11:00:00,35.6,27.1,30.12,North,355,12.0,12.0,71,0.00,,,0.00,Wunderground v.1.15,2013-03-26 16:00:00,
2013-03-26 11:04:00,35.5,27.7,30.12,North,9,11.0,13.0,73,0.00,,,0.00,Wunderground v.1.15,2013-03-26 16:04:00,
2013-03-26 11:09:00,35.3,27.2,30.12,North,5,13.0,13.0,72,0.00,,,0.00,Wunderground v.1.15,2013-03-26 16:09:00,
2013-03-26 11:14:00,35.5,27.4,30.12,North,5,12.0,13.0,72,0.00,,,0.00,Wunderground v.1.15,2013-03-26 16:14:00,
2013-03-26 11:19:00,35.6,27.5,30.12,NNE,20,11.0,11.0,72,0.00,,,0.00,Wunderground v.1.15,2013-03-26 16:19:00,
2013-03-26 11:29:00,35.2,27.1,30.12,North,5,13.0,13.0,72,0.00,,,0.00,Wunderground v.1.15,2013-03-26 16:29:00,
2013-03-26 11:34:00,35.0,27.5,30.12,North,5,13.0,14.0,74,0.00,,,0.00,Wunderground v.1.15,2013-03-26 16:34:00,
2013-03-26 11:39:00,34.9,27.8,30.12,NW,321,13.0,13.0,75,0.00,,,0.00,Wunderground v.1.15,2013-03-26 16:39:00,
2013-03-26 11:44:00,35.0,28.2,30.13,North,5,12.0,13.0,76,0.00,,,0.00,Wunderground v.1.15,2013-03-26 16:44:00,
2013-03-26 11:49:00,34.9,28.1,30.13,NNE,32,11.0,12.0,76,0.00,,,0.00,Wunderground v.1.15,2013-03-26 16:49:00,
2013-03-26 11:54:00,34.9,28.4,30.13,North,355,11.0,12.0,77,0.00,,,0.00,Wunderground v.1.15,2013-03-26 16:54:00,
2013-03-26 11:59:00,34.7,28.2,30.13,NNW,339,11.0,12.0,77,0.00,,,0.00,Wunderground v.1.15,2013-03-26 16:59:00,
2013-03-26 12:04:00,34.4,28.2,30.13,North,5,11.0,12.0,78,0.00,,,0.00,Wunderground v.1.15,2013-03-26 17:04:00,
2013-03-26 12:09:00,34.6,28.4,30.13,North,360,11.0,11.0,78,0.00,,,0.00,Wunderground v.1.15,2013-03-26 17:09:00,
2013-03-26 12:14:00,34.6,28.4,30.13,North,5,10.0,11.0,78,0.00,,,0.00,Wunderground v.1.15,2013-03-26 17:14:00,
2013-03-26 12:19:00,34.6,28.1,30.13,North,355,10.0,11.0,77,0.00,,,0.00,Wunderground v.1.15,2013-03-26 17:19:00,
2013-03-26 12:24:00,34.6,28.1,30.13,North,355,10.0,11.0,77,0.00,,,0.00,Wunderground v.1.15,2013-03-26 17:24:00,
2013-03-26 12:29:00,34.7,28.2,30.13,North,5,10.0,12.0,77,0.00,,,0.00,Wunderground v.1.15,2013-03-26 17:29:00,
2013-03-26 12:39:00,35.0,28.5,30.13,NNW,332,11.0,11.0,77,0.00,,,0.00,Wunderground v.1.15,2013-03-26 17:39:00,
2013-03-26 12:44:00,35.2,28.4,30.13,NNE,15,10.0,13.0,76,0.00,,,0.00,Wunderground v.1.15,2013-03-26 17:44:00,
2013-03-26 12:49:00,35.2,28.4,30.13,NNW,338,9.0,9.0,76,0.00,,,0.00,Wunderground v.1.15,2013-03-26 17:49:00,
2013-03-26 12:54:00,35.3,28.5,30.13,NNW,338,9.0,10.0,76,0.00,,,0.00,Wunderground v.1.15,2013-03-26 17:54:00,
2013-03-26 12:59:00,35.3,28.2,30.13,North,350,10.0,15.0,75,0.00,,,0.00,Wunderground v.1.15,2013-03-26 17:59:00,
2013-03-26 13:05:00,34.9,28.1,30.13,NNW,348,11.0,15.0,76,0.00,,,0.00,Wunderground v.1.15,2013-03-26 18:05:00,
2013-03-26 13:10:00,34.6,27.8,30.13,NW,324,12.0,12.0,76,0.00,,,0.00,Wunderground v.1.15,2013-03-26 18:10:00,
2013-03-26 13:19:00,34.7,27.9,30.14,NNW,340,10.0,10.0,76,0.00,,,0.00,Wunderground v.1.15,2013-03-26 18:19:00,
2013-03-26 13:24:00,34.6,28.1,30.14,North,355,11.0,11.0,77,0.00,,,0.00,Wunderground v.1.15,2013-03-26 18:24:00,
2013-03-26 13:29:00,34.6,27.8,30.13,NNW,348,10.0,13.0,76,0.00,,,0.00,Wunderground v.1.15,2013-03-26 18:29:00,
2013-03-26 13:34:00,34.4,27.9,30.13,NNW,336,10.0,13.0,77,0.00,,,0.00,Wunderground v.1.15,2013-03-26 18:34:00,
2013-03-26 13:39:00,34.6,28.1,30.13,North,9,8.0,10.0,77,0.00,,,0.00,Wunderground v.1.15,2013-03-26 18:39:00,
2013-03-26 13:49:00,34.4,27.6,30.13,North,360,9.0,10.0,76,0.00,,,0.00,Wunderground v.1.15,2013-03-26 18:49:00,
2013-03-26 13:54:00,34.4,27.9,30.13,North,355,10.0,11.0,77,0.00,,,0.00,Wunderground v.1.15,2013-03-26 18:54:00,
2013-03-26 13:59:00,34.4,27.6,30.13,North,360,10.0,15.0,76,0.00,,,0.00,Wunderground v.1.15,2013-03-26 18:59:00,
2013-03-26 14:04:00,34.3,27.5,30.13,NW,322,11.0,15.0,76,0.00,,,0.00,Wunderground v.1.15,2013-03-26 19:04:00,
2013-03-26 14:09:00,34.4,27.6,30.13,NNW,337,10.0,10.0,76,0.00,,,0.00,Wunderground v.1.15,2013-03-26 19:09:00,
2013-03-26 14:14:00,34.4,27.6,30.13,NNW,331,9.0,10.0,76,0.00,,,0.00,Wunderground v.1.15,2013-03-26 19:14:00,
2013-03-26 14:20:00,34.4,27.6,30.13,North,355,8.0,13.0,76,0.00,,,0.00,Wunderground v.1.15,2013-03-26 19:20:00,
2013-03-26 14:25:00,34.4,27.9,30.13,North,355,9.0,13.0,77,0.00,,,0.00,Wunderground v.1.15,2013-03-26 19:25:00,
2013-03-26 14:30:00,34.4,27.9,30.13,North,355,11.0,11.0,77,0.00,,,0.00,Wunderground v.1.15,2013-03-26 19:30:00,
2013-03-26 14:35:00,34.6,28.1,30.13,NNW,333,10.0,11.0,77,0.00,,,0.00,Wunderground v.1.15,2013-03-26 19:35:00,
2013-03-26 14:39:00,34.6,28.1,30.13,North,360,9.0,13.0,77,0.00,,,0.00,Wunderground v.1.15,2013-03-26 19:39:00,
2013-03-26 14:44:00,34.6,28.1,30.13,NW,318,10.0,13.0,77,0.00,,,0.00,Wunderground v.1.15,2013-03-26 19:44:00,
2013-03-26 14:49:00,34.4,28.2,30.13,North,360,10.0,12.0,78,0.00,,,0.00,Wunderground v.1.15,2013-03-26 19:49:00,
2013-03-26 14:54:00,34.4,28.2,30.13,NNW,345,10.0,12.0,78,0.00,,,0.00,Wunderground v.1.15,2013-03-26 19:54:00,
2013-03-26 14:59:00,34.4,28.6,30.13,North,355,9.0,9.0,79,0.00,,,0.00,Wunderground v.1.15,2013-03-26 19:59:00,
2013-03-26 15:04:00,34.4,28.2,30.13,NW,326,9.0,14.0,78,0.00,,,0.00,Wunderground v.1.15,2013-03-26 20:04:00,
2013-03-26 15:09:00,34.4,28.2,30.13,North,350,9.0,9.0,78,0.00,,,0.00,Wunderground v.1.15,2013-03-26 20:09:00,
2013-03-26 15:14:00,34.6,28.4,30.13,North,9,8.0,9.0,78,0.00,,,0.00,Wunderground v.1.15,2013-03-26 20:14:00,
2013-03-26 15:19:00,34.7,28.5,30.13,NNW,334,7.0,7.0,78,0.00,,,0.00,Wunderground v.1.15,2013-03-26 20:19:00,
2013-03-26 15:24:00,34.6,28.1,30.13,NW,320,7.0,10.0,77,0.00,,,0.00,Wunderground v.1.15,2013-03-26 20:24:00,
2013-03-26 15:29:00,34.6,28.4,30.13,NNW,332,9.0,9.0,78,0.00,,,0.00,Wunderground v.1.15,2013-03-26 20:29:00,
2013-03-26 15:34:00,34.7,28.5,30.13,NNW,336,9.0,9.0,78,0.00,,,0.00,Wunderground v.1.15,2013-03-26 20:34:00,
2013-03-26 15:40:00,34.9,28.7,30.13,NNW,339,9.0,10.0,78,0.00,,,0.00,Wunderground v.1.15,2013-03-26 20:40:00,
2013-03-26 15:45:00,34.9,28.7,30.13,NNW,342,9.0,10.0,78,0.00,,,0.00,Wunderground v.1.15,2013-03-26 20:45:00,
2013-03-26 15:50:00,34.7,28.5,30.13,North,360,10.0,10.0,78,0.00,,,0.00,Wunderground v.1.15,2013-03-26 20:50:00,
2013-03-26 15:59:00,34.9,28.7,30.13,NNW,337,9.0,11.0,78,0.00,,,0.00,Wunderground v.1.15,2013-03-26 20:59:00,
2013-03-26 16:04:00,34.9,28.7,30.13,NNW,335,9.0,11.0,78,0.00,,,0.00,Wunderground v.1.15,2013-03-26 21:04:00,
2013-03-26 16:09:00,35.0,28.8,30.13,North,355,9.0,9.0,78,0.00,,,0.00,Wunderground v.1.15,2013-03-26 21:09:00,
2013-03-26 16:14:00,35.0,28.8,30.13,NNW,329,8.0,12.0,78,0.00,,,0.00,Wunderground v.1.15,2013-03-26 21:14:00,
2013-03-26 16:19:00,34.9,28.7,30.13,North,360,9.0,9.0,78,0.00,,,0.00,Wunderground v.1.15,2013-03-26 21:19:00,
2013-03-26 16:24:00,35.0,28.8,30.13,North,355,9.0,9.0,78,0.00,,,0.00,Wunderground v.1.15,2013-03-26 21:24:00,
2013-03-26 16:29:00,35.0,28.8,30.14,NNW,333,8.0,10.0,78,0.00,,,0.00,Wunderground v.1.15,2013-03-26 21:29:00,
2013-03-26 16:34:00,35.2,28.7,30.14,NNW,347,8.0,10.0,77,0.00,,,0.00,Wunderground v.1.15,2013-03-26 21:34:00,
2013-03-26 16:39:00,35.3,28.8,30.14,NNW,345,8.0,8.0,77,0.00,,,0.00,Wunderground v.1.15,2013-03-26 21:39:00,
2013-03-26 16:44:00,35.3,28.8,30.14,North,349,7.0,9.0,77,0.00,,,0.00,Wunderground v.1.15,2013-03-26 21:44:00,
2013-03-26 16:49:00,35.3,28.8,30.14,NNW,337,7.0,12.0,77,0.00,,,0.00,Wunderground v.1.15,2013-03-26 21:49:00,
2013-03-26 16:55:00,35.3,28.8,30.14,NNW,329,7.0,12.0,77,0.00,,,0.00,Wunderground v.1.15,2013-03-26 21:55:00,
2013-03-26 17:00:00,35.3,28.8,30.14,North,5,7.0,7.0,77,0.00,,,0.00,Wunderground v.1.15,2013-03-26 22:00:00,
2013-03-26 17:04:00,35.3,28.8,30.14,North,5,7.0,7.0,77,0.00,,,0.00,Wunderground v.1.15,2013-03-26 22:04:00,
2013-03-26 17:09:00,35.2,29.0,30.14,NNE,24,8.0,8.0,78,0.00,,,0.00,Wunderground v.1.15,2013-03-26 22:09:00,
2013-03-26 17:14:00,35.2,29.0,30.14,North,11,8.0,8.0,78,0.00,,,0.00,Wunderground v.1.15,2013-03-26 22:14:00,
2013-03-26 17:19:00,35.2,29.0,30.14,North,5,7.0,7.0,78,0.00,,,0.00,Wunderground v.1.15,2013-03-26 22:19:00,
2013-03-26 17:24:00,35.2,29.0,30.14,NNE,13,8.0,10.0,78,0.00,,,0.00,Wunderground v.1.15,2013-03-26 22:24:00,
2013-03-26 17:29:00,35.3,29.1,30.14,North,5,8.0,8.0,78,0.00,,,0.00,Wunderground v.1.15,2013-03-26 22:29:00,
2013-03-26 17:34:00,35.3,29.1,30.14,North,360,7.0,8.0,78,0.00,,,0.00,Wunderground v.1.15,2013-03-26 22:34:00,
2013-03-26 17:39:00,35.3,29.1,30.14,North,355,7.0,7.0,78,0.00,,,0.00,Wunderground v.1.15,2013-03-26 22:39:00,
2013-03-26 17:44:00,35.5,29.3,30.14,North,5,6.0,7.0,78,0.00,,,0.00,Wunderground v.1.15,2013-03-26 22:44:00,
2013-03-26 17:49:00,35.5,29.0,30.14,NNE,18,5.0,5.0,77,0.00,,,0.00,Wunderground v.1.15,2013-03-26 22:49:00,
2013-03-26 17:54:00,35.3,29.1,30.14,NNE,16,6.0,6.0,78,0.00,,,0.00,Wunderground v.1.15,2013-03-26 22:54:00,
2013-03-26 17:59:00,35.3,29.1,30.15,NNE,24,6.0,6.0,78,0.00,,,0.00,Wunderground v.1.15,2013-03-26 22:59:00,
2013-03-26 18:04:00,35.3,29.1,30.15,NNE,21,6.0,6.0,78,0.00,,,0.00,Wunderground v.1.15,2013-03-26 23:04:00,
2013-03-26 18:09:00,35.3,29.1,30.15,North,11,6.0,6.0,78,0.00,,,0.00,Wunderground v.1.15,2013-03-26 23:09:00,
2013-03-26 18:14:00,35.3,29.1,30.15,North,9,6.0,6.0,78,0.00,,,0.00,Wunderground v.1.15,2013-03-26 23:14:00,
2013-03-26 18:19:00,35.2,29.3,30.15,North,5,6.0,6.0,79,0.00,,,0.00,Wunderground v.1.15,2013-03-26 23:19:00,
2013-03-26 18:29:00,35.2,29.3,30.15,North,5,6.0,6.0,79,0.00,,,0.00,Wunderground v.1.15,2013-03-26 23:29:00,
2013-03-26 18:34:00,35.2,29.3,30.15,North,9,6.0,6.0,79,0.00,,,0.00,Wunderground v.1.15,2013-03-26 23:34:00,
2013-03-26 18:39:00,35.2,29.6,30.15,North,5,5.0,5.0,80,0.00,,,0.00,Wunderground v.1.15,2013-03-26 23:39:00,
2013-03-26 18:44:00,35.2,29.6,30.15,North,5,4.0,5.0,80,0.00,,,0.00,Wunderground v.1.15,2013-03-26 23:44:00,
2013-03-26 18:49:00,35.2,29.6,30.15,North,5,5.0,5.0,80,0.00,,,0.00,Wunderground v.1.15,2013-03-26 23:49:00,
2013-03-26 18:54:00,35.2,29.6,30.15,North,5,5.0,5.0,80,0.00,,,0.00,Wunderground v.1.15,2013-03-26 23:54:00,
2013-03-26 19:00:00,35.2,29.6,30.16,North,351,5.0,5.0,80,0.00,,,0.00,Wunderground v.1.15,2013-03-27 00:00:00,
2013-03-26 19:09:00,35.0,29.5,30.16,North,5,5.0,5.0,80,0.00,,,0.00,Wunderground v.1.15,2013-03-27 00:09:00,
2013-03-26 19:14:00,35.0,29.5,30.16,North,5,4.0,5.0,80,0.00,,,0.00,Wunderground v.1.15,2013-03-27 00:14:00,
2013-03-26 19:19:00,35.0,29.5,30.16,North,360,4.0,5.0,80,0.00,,,0.00,Wunderground v.1.15,2013-03-27 00:19:00,
2013-03-26 19:24:00,35.0,29.8,30.16,North,355,5.0,5.0,81,0.00,,,0.00,Wunderground v.1.15,2013-03-27 00:24:00,
2013-03-26 19:29:00,35.0,29.8,30.16,North,360,4.0,4.0,81,0.00,,,0.00,Wunderground v.1.15,2013-03-27 00:29:00,
2013-03-26 19:34:00,35.0,29.8,30.16,North,360,4.0,4.0,81,0.00,,,0.00,Wunderground v.1.15,2013-03-27 00:34:00,
2013-03-26 19:39:00,35.0,29.8,30.16,North,5,4.0,6.0,81,0.00,,,0.00,Wunderground v.1.15,2013-03-27 00:39:00,
2013-03-26 19:44:00,35.0,29.5,30.17,North,5,4.0,6.0,80,0.00,,,0.00,Wunderground v.1.15,2013-03-27 00:44:00,
2013-03-26 19:49:00,35.0,29.5,30.17,North,360,5.0,5.0,80,0.00,,,0.00,Wunderground v.1.15,2013-03-27 00:49:00,
2013-03-26 19:54:00,35.0,29.5,30.17,North,360,5.0,5.0,80,0.00,,,0.00,Wunderground v.1.15,2013-03-27 00:54:00,
2013-03-26 19:59:00,35.0,29.5,30.17,North,360,5.0,5.0,80,0.00,,,0.00,Wunderground v.1.15,2013-03-27 00:59:00,
2013-03-26 20:04:00,35.0,29.5,30.17,North,360,4.0,5.0,80,0.00,,,0.00,Wunderground v.1.15,2013-03-27 01:04:00,
2013-03-26 20:09:00,35.0,29.5,30.17,North,360,4.0,4.0,80,0.00,,,0.00,Wunderground v.1.15,2013-03-27 01:09:00,
2013-03-26 20:14:00,35.2,29.6,30.17,North,360,4.0,4.0,80,0.00,,,0.00,Wunderground v.1.15,2013-03-27 01:14:00,
2013-03-26 20:19:00,35.2,29.6,30.17,North,360,4.0,4.0,80,0.00,,,0.00,Wunderground v.1.15,2013-03-27 01:19:00,
2013-03-26 20:24:00,35.0,29.5,30.17,North,355,4.0,5.0,80,0.00,,,0.00,Wunderground v.1.15,2013-03-27 01:24:00,
2013-03-26 20:29:00,35.2,29.3,30.17,North,355,4.0,4.0,79,0.00,,,0.00,Wunderground v.1.15,2013-03-27 01:29:00,
2013-03-26 20:34:00,35.2,29.6,30.17,North,355,4.0,4.0,80,0.00,,,0.00,Wunderground v.1.15,2013-03-27 01:34:00,
2013-03-26 20:39:00,35.0,29.5,30.17,North,355,3.0,4.0,80,0.00,,,0.00,Wunderground v.1.15,2013-03-27 01:39:00,
2013-03-26 20:49:00,35.0,29.5,30.17,North,355,4.0,4.0,80,0.00,,,0.00,Wunderground v.1.15,2013-03-27 01:49:00,
2013-03-26 20:54:00,35.0,29.1,30.17,North,350,4.0,4.0,79,0.00,,,0.00,Wunderground v.1.15,2013-03-27 01:54:00,
2013-03-26 20:59:00,35.2,29.3,30.18,North,350,4.0,4.0,79,0.00,,,0.00,Wunderground v.1.15,2013-03-27 01:59:00,
2013-03-26 21:05:00,35.0,29.1,30.18,North,350,3.0,4.0,79,0.00,,,0.00,Wunderground v.1.15,2013-03-27 02:05:00,
2013-03-26 21:10:00,35.0,29.1,30.18,North,350,3.0,6.0,79,0.00,,,0.00,Wunderground v.1.15,2013-03-27 02:10:00,
2013-03-26 21:14:00,35.2,29.3,30.18,North,350,3.0,6.0,79,0.00,,,0.00,Wunderground v.1.15,2013-03-27 02:14:00,
2013-03-26 21:19:00,35.2,29.3,30.18,North,349,3.0,3.0,79,0.00,,,0.00,Wunderground v.1.15,2013-03-27 02:19:00,
2013-03-26 21:24:00,35.2,29.3,30.18,North,349,3.0,3.0,79,0.00,,,0.00,Wunderground v.1.15,2013-03-27 02:24:00,
2013-03-26 21:29:00,35.2,29.3,30.18,North,349,3.0,3.0,79,0.00,,,0.00,Wunderground v.1.15,2013-03-27 02:29:00,
2013-03-26 21:34:00,35.0,29.1,30.18,North,349,3.0,3.0,79,0.00,,,0.00,Wunderground v.1.15,2013-03-27 02:34:00,
2013-03-26 21:39:00,35.0,29.1,30.18,North,349,3.0,3.0,79,0.00,,,0.00,Wunderground v.1.15,2013-03-27 02:39:00,
2013-03-26 21:44:00,35.0,29.5,30.18,NNW,348,3.0,3.0,80,0.00,,,0.00,Wunderground v.1.15,2013-03-27 02:44:00,
2013-03-26 21:49:00,35.0,29.5,30.18,NNW,348,3.0,3.0,80,0.00,,,0.00,Wunderground v.1.15,2013-03-27 02:49:00,
2013-03-26 21:59:00,34.9,29.7,30.18,North,349,1.0,1.0,81,0.00,,,0.00,Wunderground v.1.15,2013-03-27 02:59:00,
2013-03-26 22:04:00,34.7,29.5,30.18,NNW,348,1.0,1.0,81,0.00,,,0.00,Wunderground v.1.15,2013-03-27 03:04:00,
2013-03-26 22:09:00,34.6,29.7,30.18,NNW,348,1.0,1.0,82,0.00,,,0.00,Wunderground v.1.15,2013-03-27 03:09:00,
2013-03-26 22:14:00,34.6,29.7,30.18,North,349,1.0,2.0,82,0.00,,,0.00,Wunderground v.1.15,2013-03-27 03:14:00,
2013-03-26 22:19:00,34.6,29.7,30.18,NNW,348,2.0,4.0,82,0.00,,,0.00,Wunderground v.1.15,2013-03-27 03:19:00,
2013-03-26 22:25:00,34.7,29.8,30.18,NNW,348,3.0,4.0,82,0.00,,,0.00,Wunderground v.1.15,2013-03-27 03:25:00,
2013-03-26 22:30:00,34.9,30.0,30.18,NNW,338,4.0,4.0,82,0.00,,,0.00,Wunderground v.1.15,2013-03-27 03:30:00,
2013-03-26 22:35:00,35.0,30.1,30.18,NNW,337,4.0,4.0,82,0.00,,,0.00,Wunderground v.1.15,2013-03-27 03:35:00,
2013-03-26 22:39:00,35.2,30.3,30.18,NNW,336,4.0,4.0,82,0.00,,,0.00,Wunderground v.1.15,2013-03-27 03:39:00,
2013-03-26 22:44:00,35.2,30.3,30.18,NNW,336,4.0,4.0,82,0.00,,,0.00,Wunderground v.1.15,2013-03-27 03:44:00,
2013-03-26 22:49:00,35.2,30.3,30.18,NNW,336,3.0,3.0,82,0.00,,,0.00,Wunderground v.1.15,2013-03-27 03:49:00,
2013-03-26 22:54:00,35.2,30.3,30.18,NNW,335,3.0,6.0,82,0.00,,,0.00,Wunderground v.1.15,2013-03-27 03:54:00,
2013-03-26 22:59:00,35.2,30.3,30.18,NNW,332,3.0,3.0,82,0.00,,,0.00,Wunderground v.1.15,2013-03-27 03:59:00,
2013-03-26 23:04:00,35.3,30.4,30.18,NNW,342,3.0,3.0,82,0.00,,,0.00,Wunderground v.1.15,2013-03-27 04:04:00,
2013-03-26 23:09:00,35.2,30.3,30.18,NNW,341,2.0,3.0,82,0.00,,,0.00,Wunderground v.1.15,2013-03-27 04:09:00,
2013-03-26 23:14:00,35.0,30.1,30.18,NNW,340,2.0,3.0,82,0.00,,,0.00,Wunderground v.1.15,2013-03-27 04:14:00,
2013-03-26 23:19:00,35.0,30.1,30.18,NNW,336,3.0,3.0,82,0.00,,,0.00,Wunderground v.1.15,2013-03-27 04:19:00,
2013-03-26 23:24:00,35.2,30.3,30.18,NNW,333,3.0,5.0,82,0.00,,,0.00,Wunderground v.1.15,2013-03-27 04:24:00,
2013-03-26 23:29:00,35.3,30.4,30.18,NW,323,3.0,3.0,82,0.00,,,0.00,Wunderground v.1.15,2013-03-27 04:29:00,
2013-03-26 23:34:00,35.3,30.4,30.18,NW,325,3.0,3.0,82,0.00,,,0.00,Wunderground v.1.15,2013-03-27 04:34:00,
2013-03-26 23:39:00,35.0,30.1,30.18,NW,325,2.0,2.0,82,0.00,,,0.00,Wunderground v.1.15,2013-03-27 04:39:00,
2013-03-26 23:45:00,34.9,30.3,30.18,NW,325,2.0,2.0,83,0.00,,,0.00,Wunderground v.1.15,2013-03-27 04:45:00,
2013-03-26 23:50:00,34.7,30.4,30.18,NW,324,2.0,2.0,84,0.00,,,0.00,Wunderground v.1.15,2013-03-27 04:50:00,
2013-03-26 23:55:00,34.6,30.3,30.18,NW,324,2.0,2.0,84,0.00,,,0.00,Wunderground v.1.15,2013-03-27 04:55:00,